Time;durP1;ratioP1;P1;durP2;ratioP2;P2;SDS_P1;SDS_P2;PMS_P1;PMS_P2;Temp;Humidity;BMP_temperature;BMP_pressure;BME280_temperature;BME280_humidity;BME280_pressure;Samples;Min_cycle;Max_cycle;Signal;HPM_P1;HPM_P2
2024/01/31 00:00:44;;;;;;;6.00;4.80;;;4.90;99.90;;;;;;2071314;28;20224;-65
2024/01/31 00:01:44;;;;;;;5.90;4.40;;;5.00;99.90;;;;;;2071958;28;20245;-66
2024/01/31 00:02:46;;;;;;;5.37;3.90;;;5.00;99.90;;;;;;2071149;28;20735;-64
2024/01/31 00:03:46;;;;;;;7.20;3.92;;;4.90;99.90;;;;;;2062525;28;20218;-65
2024/01/31 00:04:47;;;;;;;5.80;4.67;;;5.00;99.90;;;;;;2062193;28;20313;-65
2024/01/31 00:05:48;;;;;;;4.90;3.97;;;5.00;99.90;;;;;;2071357;28;20306;-65
2024/01/31 00:06:52;;;;;;;7.32;4.43;;;5.00;99.90;;;;;;2070692;28;20371;-65
2024/01/31 00:07:53;;;;;;;6.10;4.57;;;5.10;99.90;;;;;;2071203;28;20232;-66
2024/01/31 00:08:55;;;;;;;7.10;4.70;;;5.10;99.90;;;;;;2071287;28;20236;-65
2024/01/31 00:09:56;;;;;;;6.88;5.13;;;5.00;99.90;;;;;;2071131;28;20225;-65
2024/01/31 00:10:56;;;;;;;7.00;4.43;;;5.10;99.90;;;;;;2062411;28;20226;-66
2024/01/31 00:11:57;;;;;;;5.27;4.37;;;5.00;99.90;;;;;;2062422;28;20234;-66
2024/01/31 00:12:58;;;;;;;5.83;4.40;;;5.00;99.90;;;;;;2062103;28;20273;-65
2024/01/31 00:13:59;;;;;;;5.53;4.43;;;5.00;99.90;;;;;;2062041;28;20240;-65
2024/01/31 00:14:59;;;;;;;7.33;4.73;;;5.10;99.90;;;;;;2070967;28;20308;-65
2024/01/31 00:16:00;;;;;;;5.37;3.90;;;5.20;99.90;;;;;;2063515;28;20218;-66
2024/01/31 00:17:01;;;;;;;5.17;4.10;;;5.10;99.90;;;;;;2058166;28;20247;-65
2024/01/31 00:18:01;;;;;;;6.83;4.40;;;5.00;99.90;;;;;;2066691;28;20313;-65
2024/01/31 00:19:02;;;;;;;7.00;5.07;;;5.00;99.90;;;;;;2066689;28;20181;-65
2024/01/31 00:20:04;;;;;;;7.25;4.53;;;5.00;99.90;;;;;;2059022;28;20185;-65
2024/01/31 00:21:04;;;;;;;5.80;3.85;;;4.90;99.90;;;;;;2046426;28;20184;-66
2024/01/31 00:22:05;;;;;;;4.97;3.73;;;4.90;99.90;;;;;;2054382;28;20617;-65
2024/01/31 00:23:06;;;;;;;4.63;3.47;;;4.90;99.90;;;;;;2072060;28;20264;-65
2024/01/31 00:24:06;;;;;;;4.83;3.70;;;4.90;99.90;;;;;;2071080;28;20187;-66
2024/01/31 00:25:07;;;;;;;5.17;3.53;;;4.90;99.90;;;;;;2062270;28;20289;-66
2024/01/31 00:26:08;;;;;;;4.88;3.63;;;5.00;99.90;;;;;;2062451;28;20193;-65
2024/01/31 00:27:09;;;;;;;5.20;3.70;;;5.00;99.90;;;;;;2071222;28;20216;-65
2024/01/31 00:28:11;;;;;;;5.03;3.50;;;5.00;99.90;;;;;;2071737;28;20190;-66
2024/01/31 00:29:11;;;;;;;3.78;2.97;;;4.90;99.90;;;;;;2073933;28;20186;-65
2024/01/31 00:30:13;;;;;;;5.27;3.50;;;5.00;99.90;;;;;;2071060;28;20192;-65
2024/01/31 00:31:14;;;;;;;5.65;4.00;;;5.00;99.90;;;;;;2071105;28;20181;-66
2024/01/31 00:32:14;;;;;;;5.72;3.42;;;5.00;99.90;;;;;;2070967;28;20208;-66
2024/01/31 00:33:15;;;;;;;4.87;3.43;;;5.00;99.90;;;;;;2071337;28;21203;-66
2024/01/31 00:34:16;;;;;;;5.23;3.53;;;5.10;99.90;;;;;;2070634;28;20181;-65
2024/01/31 00:35:16;;;;;;;4.83;3.47;;;5.10;99.90;;;;;;2062033;28;20206;-66
2024/01/31 00:36:17;;;;;;;4.00;3.40;;;5.10;99.90;;;;;;2062271;28;20570;-65
2024/01/31 00:37:18;;;;;;;5.30;3.70;;;5.10;99.90;;;;;;2071070;28;20181;-64
2024/01/31 00:38:19;;;;;;;4.43;3.20;;;5.00;99.90;;;;;;2072023;28;20185;-65
2024/01/31 00:39:20;;;;;;;4.53;2.90;;;5.00;99.90;;;;;;2062416;28;20242;-66
2024/01/31 00:40:21;;;;;;;5.30;3.72;;;5.00;99.90;;;;;;2062705;28;20230;-66
2024/01/31 00:41:22;;;;;;;5.30;3.80;;;5.00;99.90;;;;;;2069236;28;20236;-65
2024/01/31 00:42:22;;;;;;;4.47;2.83;;;5.00;99.90;;;;;;2064127;28;20253;-65
2024/01/31 00:43:23;;;;;;;3.60;3.03;;;5.00;99.90;;;;;;2061742;28;20301;-66
2024/01/31 00:44:24;;;;;;;4.53;3.00;;;5.00;99.90;;;;;;2070248;28;20376;-65
2024/01/31 00:45:24;;;;;;;4.30;3.53;;;5.00;99.90;;;;;;2069539;28;20226;-65
2024/01/31 00:46:25;;;;;;;4.53;3.13;;;5.00;99.90;;;;;;2061460;28;20653;-66
2024/01/31 00:47:26;;;;;;;4.07;3.07;;;5.00;99.90;;;;;;2062062;28;20230;-64
2024/01/31 00:48:26;;;;;;;5.40;3.67;;;5.00;99.90;;;;;;2070692;28;20612;-66
2024/01/31 00:49:27;;;;;;;4.63;3.43;;;5.00;99.90;;;;;;2071101;28;20236;-66
2024/01/31 00:50:28;;;;;;;3.27;2.90;;;4.90;99.90;;;;;;2070346;28;20233;-65
2024/01/31 00:51:29;;;;;;;4.87;3.43;;;4.90;99.90;;;;;;2069852;28;20311;-65
2024/01/31 00:52:29;;;;;;;3.40;2.70;;;4.90;99.90;;;;;;2070553;28;20605;-66
2024/01/31 00:53:30;;;;;;;5.77;3.33;;;5.00;99.90;;;;;;2070746;28;20705;-65
2024/01/31 00:54:31;;;;;;;4.93;2.97;;;4.90;99.90;;;;;;2070757;28;20252;-66
2024/01/31 00:55:31;;;;;;;7.60;3.57;;;4.90;99.90;;;;;;2062055;28;20288;-66
2024/01/31 00:56:32;;;;;;;4.50;3.50;;;4.90;99.90;;;;;;2062009;28;20234;-66
2024/01/31 00:57:33;;;;;;;4.10;3.33;;;5.00;99.90;;;;;;2069812;28;20760;-65
2024/01/31 00:58:34;;;;;;;5.27;3.07;;;4.90;99.90;;;;;;2070625;28;20772;-66
2024/01/31 00:59:34;;;;;;;4.70;3.13;;;4.80;99.90;;;;;;2063040;28;20226;-66
2024/01/31 01:00:35;;;;;;;4.67;3.60;;;4.80;99.90;;;;;;2061985;28;20788;-66
2024/01/31 01:01:36;;;;;;;4.30;3.33;;;4.90;99.90;;;;;;2062088;28;20232;-66
2024/01/31 01:02:36;;;;;;;7.60;3.70;;;4.80;99.90;;;;;;2062965;28;20222;-65
2024/01/31 01:03:37;;;;;;;4.87;3.47;;;4.70;99.90;;;;;;2070834;28;20237;-66
2024/01/31 01:04:38;;;;;;;5.00;3.57;;;4.70;99.90;;;;;;2070296;28;20269;-66
2024/01/31 01:05:39;;;;;;;4.05;2.92;;;4.60;99.90;;;;;;2070911;28;20360;-65
2024/01/31 01:06:41;;;;;;;5.33;3.97;;;4.50;99.90;;;;;;2070681;28;20356;-66
2024/01/31 01:07:45;;;;;;;5.25;3.78;;;4.50;99.90;;;;;;2069554;28;20766;-66
2024/01/31 01:08:46;;;;;;;4.85;2.97;;;4.50;99.90;;;;;;2061823;28;20292;-66
2024/01/31 01:09:47;;;;;;;5.60;3.72;;;4.40;99.90;;;;;;2062999;28;20288;-65
2024/01/31 01:10:48;;;;;;;5.00;3.60;;;4.40;99.90;;;;;;2062138;28;20284;-66
2024/01/31 01:11:48;;;;;;;5.40;3.43;;;4.40;99.90;;;;;;2061841;28;20264;-66
2024/01/31 01:12:49;;;;;;;4.40;3.40;;;4.40;99.90;;;;;;2072600;28;20727;-66
2024/01/31 01:13:50;;;;;;;3.77;2.70;;;4.40;99.90;;;;;;2069794;28;20220;-65
2024/01/31 01:14:50;;;;;;;4.03;3.00;;;4.40;99.90;;;;;;2070759;28;20592;-65
2024/01/31 01:15:51;;;;;;;3.47;2.80;;;4.40;99.90;;;;;;2070718;28;20283;-66
2024/01/31 01:16:52;;;;;;;5.10;2.67;;;4.30;99.90;;;;;;2070535;28;20231;-66
2024/01/31 01:17:52;;;;;;;4.97;3.60;;;4.30;99.90;;;;;;2070810;28;20229;-65
2024/01/31 01:18:53;;;;;;;5.70;3.40;;;4.30;99.90;;;;;;2062338;28;20723;-65
2024/01/31 01:19:54;;;;;;;7.57;3.70;;;4.30;99.90;;;;;;2062282;28;20259;-66
2024/01/31 01:20:54;;;;;;;4.57;3.60;;;4.30;99.90;;;;;;2070862;28;20645;-66
2024/01/31 01:21:56;;;;;;;3.47;2.90;;;4.30;99.90;;;;;;2070620;28;20252;-66
2024/01/31 01:22:57;;;;;;;3.60;3.13;;;4.20;99.90;;;;;;2062632;28;20228;-66
2024/01/31 01:23:57;;;;;;;3.67;3.10;;;4.20;99.90;;;;;;2061899;28;20257;-66
2024/01/31 01:24:58;;;;;;;4.33;3.40;;;4.10;99.90;;;;;;2070716;28;20258;-66
2024/01/31 01:25:59;;;;;;;6.13;3.17;;;4.10;99.90;;;;;;2070204;28;20235;-65
2024/01/31 01:26:59;;;;;;;3.53;3.00;;;4.20;99.90;;;;;;2067652;28;20222;-65
2024/01/31 01:28:00;;;;;;;4.67;2.43;;;4.20;99.90;;;;;;2061796;28;20713;-66
2024/01/31 01:29:01;;;;;;;3.33;2.50;;;4.20;99.90;;;;;;2063858;28;20607;-65
2024/01/31 01:30:02;;;;;;;5.20;3.13;;;4.20;99.90;;;;;;2070608;28;20214;-66
2024/01/31 01:31:03;;;;;;;4.70;3.50;;;4.20;99.90;;;;;;2061681;28;20197;-65
2024/01/31 01:32:04;;;;;;;4.90;3.53;;;4.20;99.90;;;;;;2051749;28;20256;-66
2024/01/31 01:33:05;;;;;;;4.23;2.67;;;4.10;99.90;;;;;;2062185;28;20221;-65
2024/01/31 01:34:06;;;;;;;4.60;3.10;;;4.10;99.90;;;;;;2070364;28;20427;-65
2024/01/31 01:35:06;;;;;;;4.50;2.50;;;4.10;99.90;;;;;;2070598;28;20375;-66
2024/01/31 01:36:07;;;;;;;4.27;3.10;;;4.00;99.90;;;;;;2061879;28;20201;-66
2024/01/31 01:37:08;;;;;;;3.37;2.63;;;4.00;99.90;;;;;;2061652;28;20190;-66
2024/01/31 01:38:09;;;;;;;3.57;2.93;;;4.00;99.90;;;;;;2070385;28;20196;-65
2024/01/31 01:39:09;;;;;;;4.27;3.20;;;4.00;99.90;;;;;;2062025;28;20209;-66
2024/01/31 01:40:10;;;;;;;6.07;3.13;;;4.10;99.90;;;;;;2061784;28;20697;-66
2024/01/31 01:41:11;;;;;;;3.20;2.90;;;4.00;99.90;;;;;;2070817;28;20188;-65
2024/01/31 01:42:12;;;;;;;4.40;2.80;;;4.00;99.90;;;;;;2070795;28;20568;-65
2024/01/31 01:43:20;;;;;;;4.35;3.00;;;4.00;99.90;;;;;;2070124;28;20200;-65
2024/01/31 01:44:21;;;;;;;3.60;2.70;;;4.00;99.90;;;;;;2070734;28;20233;-65
2024/01/31 01:45:21;;;;;;;2.50;2.30;;;4.00;99.90;;;;;;2070681;28;20227;-65
2024/01/31 01:46:23;;;;;;;4.40;2.90;;;3.90;99.90;;;;;;2074129;28;20602;-67
2024/01/31 01:47:25;;;;;;;3.28;2.97;;;3.90;99.90;;;;;;2067797;28;20235;-65
2024/01/31 01:48:25;;;;;;;4.15;3.00;;;3.90;99.90;;;;;;2071024;28;20229;-65
2024/01/31 01:49:32;;;;;;;2.50;2.30;;;3.90;99.90;;;;;;2070331;28;20227;-66
2024/01/31 01:50:33;;;;;;;2.97;2.60;;;3.80;99.90;;;;;;2067008;28;20595;-66
2024/01/31 01:51:34;;;;;;;4.00;2.90;;;3.90;99.90;;;;;;2070601;28;20236;-66
2024/01/31 01:52:36;;;;;;;2.85;2.22;;;3.90;99.90;;;;;;2070616;28;20231;-65
2024/01/31 01:53:37;;;;;;;3.33;2.33;;;3.90;99.90;;;;;;2070065;28;20237;-66
2024/01/31 01:54:39;;;;;;;5.93;3.10;;;3.80;99.90;;;;;;2062453;28;20392;-66
2024/01/31 01:55:41;;;;;;;3.65;2.80;;;3.90;99.90;;;;;;2061838;28;20227;-65
2024/01/31 01:56:45;;;;;;;4.80;2.55;;;3.90;99.90;;;;;;2051587;28;20833;-66
2024/01/31 01:57:46;;;;;;;3.28;2.90;;;3.90;99.90;;;;;;2045933;28;20228;-65
2024/01/31 01:58:48;;;;;;;4.43;3.13;;;3.90;99.90;;;;;;2061906;28;20297;-66
2024/01/31 01:59:50;;;;;;;3.70;2.53;;;3.90;99.90;;;;;;2061245;28;20216;-66
2024/01/31 02:00:50;;;;;;;3.47;2.75;;;3.80;99.90;;;;;;2053660;28;20221;-66
2024/01/31 02:01:52;;;;;;;3.40;3.00;;;3.80;99.90;;;;;;2059621;28;20285;-65
2024/01/31 02:02:52;;;;;;;7.70;3.38;;;3.80;99.90;;;;;;2060974;28;20218;-66
2024/01/31 02:03:57;;;;;;;3.80;2.90;;;3.70;99.90;;;;;;2060008;28;20304;-65
2024/01/31 02:04:58;;;;;;;3.53;3.00;;;3.70;99.90;;;;;;2060698;28;20777;-65
2024/01/31 02:06:00;;;;;;;3.97;2.88;;;3.70;99.90;;;;;;2061972;28;20304;-64
2024/01/31 02:07:01;;;;;;;5.45;3.33;;;3.80;99.90;;;;;;2060499;28;20232;-65
2024/01/31 02:08:02;;;;;;;4.60;3.83;;;3.80;99.90;;;;;;2063385;28;20665;-65
2024/01/31 02:09:03;;;;;;;8.70;3.67;;;3.80;99.90;;;;;;2069631;28;20909;-65
2024/01/31 02:10:05;;;;;;;5.13;3.70;;;3.70;99.90;;;;;;2052028;28;20237;-65
2024/01/31 02:11:06;;;;;;;5.53;3.30;;;3.60;99.90;;;;;;2053175;28;20183;-65
2024/01/31 02:12:06;;;;;;;5.60;3.78;;;3.70;99.90;;;;;;2068227;28;20186;-65
2024/01/31 02:13:07;;;;;;;6.20;3.37;;;3.60;99.90;;;;;;2067193;28;20218;-66
2024/01/31 02:14:08;;;;;;;3.60;2.63;;;3.60;99.90;;;;;;2061102;28;20272;-66
2024/01/31 02:15:09;;;;;;;6.80;3.20;;;3.70;99.90;;;;;;2060087;28;20579;-66
2024/01/31 02:16:10;;;;;;;6.22;3.70;;;3.70;99.90;;;;;;2068696;28;20551;-65
2024/01/31 02:17:11;;;;;;;4.60;3.50;;;3.70;99.90;;;;;;2070455;28;20189;-66
2024/01/31 02:18:11;;;;;;;5.27;3.73;;;3.70;99.90;;;;;;2061143;28;20177;-66
2024/01/31 02:19:12;;;;;;;4.50;3.53;;;3.70;99.90;;;;;;2060143;28;20213;-66
2024/01/31 02:20:15;;;;;;;6.03;3.87;;;3.60;99.90;;;;;;2060725;28;20592;-66
2024/01/31 02:21:16;;;;;;;5.47;3.78;;;3.60;99.90;;;;;;2061114;28;20178;-65
2024/01/31 02:22:20;;;;;;;5.00;4.20;;;3.60;99.90;;;;;;2060735;28;20204;-66
2024/01/31 02:23:24;;;;;;;4.97;3.55;;;3.50;99.90;;;;;;2060332;28;20241;-66
2024/01/31 02:24:25;;;;;;;6.72;4.10;;;3.50;99.90;;;;;;2057744;28;20237;-65
2024/01/31 02:25:26;;;;;;;5.83;3.40;;;3.50;99.90;;;;;;2060955;28;20349;-65
2024/01/31 02:26:26;;;;;;;4.97;3.63;;;3.50;99.90;;;;;;2061210;28;20232;-66
2024/01/31 02:27:27;;;;;;;6.20;3.53;;;3.50;99.90;;;;;;2053169;28;20234;-66
2024/01/31 02:28:27;;;;;;;3.80;2.93;;;3.60;99.90;;;;;;2061958;28;20253;-65
2024/01/31 02:29:28;;;;;;;5.60;3.17;;;3.70;99.90;;;;;;2059981;28;20684;-65
2024/01/31 02:30:29;;;;;;;6.30;3.80;;;3.80;99.90;;;;;;2061161;28;20261;-65
2024/01/31 02:31:29;;;;;;;5.33;3.70;;;3.80;99.90;;;;;;2071091;28;20263;-65
2024/01/31 02:32:30;;;;;;;3.97;3.13;;;3.80;99.90;;;;;;2069193;28;20264;-65
2024/01/31 02:33:31;;;;;;;4.60;3.50;;;3.80;99.90;;;;;;2069694;28;20737;-66
2024/01/31 02:34:32;;;;;;;4.70;2.83;;;3.80;99.90;;;;;;2060127;28;20765;-65
2024/01/31 02:35:34;;;;;;;3.55;2.72;;;3.80;99.90;;;;;;2051664;28;20249;-66
2024/01/31 02:36:35;;;;;;;5.90;3.70;;;3.80;99.90;;;;;;2053152;28;20269;-65
2024/01/31 02:37:42;;;;;;;3.50;2.63;;;3.80;99.90;;;;;;2061095;28;20359;-65
2024/01/31 02:38:43;;;;;;;4.45;3.28;;;3.90;99.90;;;;;;2069300;28;20232;-65
2024/01/31 02:39:43;;;;;;;4.23;2.80;;;3.90;99.90;;;;;;2070255;28;20312;-65
2024/01/31 02:40:44;;;;;;;7.00;3.33;;;3.80;99.90;;;;;;2070172;28;20225;-65
2024/01/31 02:41:45;;;;;;;4.67;3.13;;;3.90;99.90;;;;;;2070041;28;20598;-65
2024/01/31 02:42:45;;;;;;;4.37;3.10;;;3.90;99.90;;;;;;2057391;28;20290;-65
2024/01/31 02:43:46;;;;;;;3.97;2.83;;;3.90;99.90;;;;;;2061149;28;20292;-65
2024/01/31 02:44:47;;;;;;;4.47;3.00;;;3.90;99.90;;;;;;2068051;28;20217;-66
2024/01/31 02:45:47;;;;;;;4.13;3.20;;;3.90;99.90;;;;;;2059874;28;20301;-65
2024/01/31 02:46:48;;;;;;;4.63;3.30;;;3.90;99.90;;;;;;2056963;28;20297;-66
2024/01/31 02:47:49;;;;;;;4.33;3.37;;;3.90;99.90;;;;;;2068327;28;20697;-66
2024/01/31 02:48:50;;;;;;;6.57;3.77;;;4.00;99.90;;;;;;2059779;28;20982;-65
2024/01/31 02:49:50;;;;;;;4.50;3.60;;;4.10;99.90;;;;;;2052577;28;20226;-65
2024/01/31 02:50:51;;;;;;;5.13;3.30;;;4.10;99.90;;;;;;2061014;28;20232;-65
2024/01/31 02:51:52;;;;;;;4.10;3.03;;;4.20;99.90;;;;;;2068272;28;20662;-66
2024/01/31 02:52:53;;;;;;;3.47;2.80;;;4.20;99.90;;;;;;2068268;28;20701;-66
2024/01/31 02:53:54;;;;;;;6.07;3.67;;;4.20;99.90;;;;;;2068535;28;20227;-66
2024/01/31 02:54:55;;;;;;;6.27;3.43;;;4.20;99.90;;;;;;2068841;28;20253;-66
2024/01/31 02:55:55;;;;;;;6.00;3.60;;;4.30;99.90;;;;;;2068483;28;20232;-66
2024/01/31 02:56:56;;;;;;;4.43;3.17;;;4.20;99.90;;;;;;2060299;28;20772;-65
2024/01/31 02:57:57;;;;;;;4.17;3.20;;;4.30;99.90;;;;;;2059208;28;20218;-65
2024/01/31 02:58:57;;;;;;;3.23;2.90;;;4.30;99.90;;;;;;2060668;28;20226;-66
2024/01/31 02:59:58;;;;;;;5.53;3.57;;;4.20;99.90;;;;;;2060340;28;20214;-65
2024/01/31 03:01:00;;;;;;;3.93;3.23;;;4.30;99.90;;;;;;2069729;28;20224;-66
2024/01/31 03:02:02;;;;;;;5.10;3.28;;;4.30;99.90;;;;;;2059271;28;20217;-66
2024/01/31 03:03:03;;;;;;;3.85;3.13;;;4.50;99.90;;;;;;2048295;28;20199;-64
2024/01/31 03:04:03;;;;;;;5.10;3.30;;;4.30;99.90;;;;;;2052123;28;20237;-65
2024/01/31 03:05:04;;;;;;;3.80;3.00;;;4.40;99.90;;;;;;2059606;28;20205;-65
2024/01/31 03:06:05;;;;;;;5.38;3.13;;;4.40;99.90;;;;;;2070998;28;20273;-65
2024/01/31 03:07:06;;;;;;;3.37;2.87;;;4.50;99.90;;;;;;2068487;28;20196;-65
2024/01/31 03:08:07;;;;;;;4.10;2.50;;;4.50;99.90;;;;;;2068979;28;20252;-65
2024/01/31 03:09:09;;;;;;;4.17;2.80;;;4.60;99.90;;;;;;2069974;28;20188;-65
2024/01/31 03:10:10;;;;;;;4.18;3.55;;;4.60;99.90;;;;;;2071411;28;20180;-66
2024/01/31 03:11:10;;;;;;;3.83;3.27;;;4.60;99.90;;;;;;2061423;28;20194;-65
2024/01/31 03:12:11;;;;;;;4.63;2.60;;;4.60;99.90;;;;;;2059919;28;20209;-65
2024/01/31 03:13:12;;;;;;;7.33;2.90;;;4.60;99.90;;;;;;2069161;28;20206;-66
2024/01/31 03:14:12;;;;;;;5.47;3.53;;;4.70;99.90;;;;;;2070363;28;20189;-65
2024/01/31 03:15:13;;;;;;;4.13;3.20;;;4.70;99.90;;;;;;2070445;28;20209;-65
2024/01/31 03:16:14;;;;;;;4.67;2.87;;;4.70;99.90;;;;;;2070037;28;20235;-66
2024/01/31 03:17:14;;;;;;;3.83;3.30;;;4.90;99.90;;;;;;2071644;28;20562;-65
2024/01/31 03:18:15;;;;;;;5.40;3.73;;;4.90;99.90;;;;;;2071274;28;20189;-65
2024/01/31 03:19:16;;;;;;;4.23;2.80;;;5.00;99.90;;;;;;2061626;28;20182;-65
2024/01/31 03:20:17;;;;;;;5.93;3.13;;;5.10;99.90;;;;;;2063621;28;20190;-66
2024/01/31 03:21:17;;;;;;;4.03;2.90;;;5.20;99.90;;;;;;2071547;28;20261;-65
2024/01/31 03:22:18;;;;;;;3.83;3.13;;;5.20;99.90;;;;;;2070342;28;20194;-66
2024/01/31 03:23:19;;;;;;;4.83;2.77;;;5.20;99.90;;;;;;2070299;28;20181;-65
2024/01/31 03:24:20;;;;;;;3.67;2.67;;;5.30;99.90;;;;;;2062171;28;20178;-66
2024/01/31 03:25:21;;;;;;;4.78;3.20;;;5.40;99.90;;;;;;2061869;28;20242;-66
2024/01/31 03:26:22;;;;;;;4.87;3.50;;;5.60;99.90;;;;;;2070521;28;20237;-66
2024/01/31 03:27:22;;;;;;;4.67;3.17;;;5.60;99.90;;;;;;2062778;28;20313;-65
2024/01/31 03:28:23;;;;;;;5.57;3.10;;;5.70;99.90;;;;;;2054207;28;20226;-65
2024/01/31 03:29:24;;;;;;;3.55;2.65;;;5.80;99.90;;;;;;2049444;28;20750;-65
2024/01/31 03:30:25;;;;;;;4.43;3.13;;;5.90;99.90;;;;;;2057040;28;20241;-65
2024/01/31 03:31:25;;;;;;;4.20;2.53;;;5.90;99.90;;;;;;2068931;28;20237;-65
2024/01/31 03:32:26;;;;;;;5.50;3.80;;;6.00;99.90;;;;;;2070952;28;20599;-66
2024/01/31 03:33:27;;;;;;;3.17;2.87;;;6.10;99.90;;;;;;2071591;28;20217;-65
2024/01/31 03:34:27;;;;;;;3.77;2.70;;;6.10;99.90;;;;;;2061436;28;20233;-66
2024/01/31 03:35:28;;;;;;;3.47;2.50;;;6.10;99.90;;;;;;2061856;28;20738;-66
2024/01/31 03:36:29;;;;;;;3.17;2.50;;;6.20;99.90;;;;;;2071978;28;20288;-65
2024/01/31 03:37:29;;;;;;;3.27;2.57;;;6.20;99.90;;;;;;2070884;28;20286;-66
2024/01/31 03:38:30;;;;;;;5.27;2.90;;;6.20;99.90;;;;;;2070456;28;20233;-66
2024/01/31 03:39:32;;;;;;;3.97;2.93;;;6.30;99.90;;;;;;2070864;28;20231;-66
2024/01/31 03:40:32;;;;;;;5.93;3.00;;;6.40;99.90;;;;;;2061691;28;20300;-65
2024/01/31 03:41:33;;;;;;;5.30;3.03;;;6.40;99.90;;;;;;2054712;28;20305;-66
2024/01/31 03:42:34;;;;;;;5.53;3.00;;;6.40;99.90;;;;;;2060385;28;20257;-66
2024/01/31 03:43:35;;;;;;;3.20;2.27;;;6.50;99.90;;;;;;2063352;28;20252;-66
2024/01/31 03:44:36;;;;;;;3.47;2.03;;;6.50;99.90;;;;;;2061627;28;20630;-66
2024/01/31 03:45:36;;;;;;;4.93;2.63;;;6.50;99.90;;;;;;2061919;28;20797;-66
2024/01/31 03:46:37;;;;;;;5.40;2.33;;;6.60;99.90;;;;;;2061748;28;20602;-65
2024/01/31 03:47:38;;;;;;;3.83;2.70;;;6.60;99.90;;;;;;2061936;28;20280;-66
2024/01/31 03:48:38;;;;;;;3.77;2.63;;;6.60;99.90;;;;;;2061309;28;20226;-66
2024/01/31 03:49:39;;;;;;;3.23;2.33;;;6.60;99.90;;;;;;2070740;28;20698;-65
2024/01/31 03:50:39;;;;;;;5.17;2.47;;;6.60;99.90;;;;;;2070954;28;20746;-66
2024/01/31 03:51:40;;;;;;;3.17;2.43;;;6.70;99.90;;;;;;2070854;28;20232;-66
2024/01/31 03:52:41;;;;;;;3.80;2.50;;;6.60;99.90;;;;;;2070796;28;20233;-64
2024/01/31 03:53:42;;;;;;;3.70;2.80;;;6.70;99.90;;;;;;2068729;28;20319;-66
2024/01/31 03:54:43;;;;;;;3.87;2.53;;;6.80;99.90;;;;;;2062394;28;20285;-66
2024/01/31 03:55:44;;;;;;;4.07;2.72;;;6.70;99.90;;;;;;2061721;28;20240;-66
2024/01/31 03:56:44;;;;;;;2.73;2.20;;;6.70;99.90;;;;;;2071824;28;20816;-65
2024/01/31 03:57:45;;;;;;;3.53;2.63;;;6.70;99.90;;;;;;2061725;28;20226;-66
2024/01/31 03:58:46;;;;;;;3.90;2.57;;;6.70;99.90;;;;;;2062407;28;20226;-66
2024/01/31 03:59:46;;;;;;;4.23;2.70;;;6.80;99.90;;;;;;2070888;28;20232;-66
2024/01/31 04:00:47;;;;;;;3.90;2.93;;;6.80;99.90;;;;;;2071680;28;20689;-66
2024/01/31 04:01:51;;;;;;;4.20;2.47;;;6.70;99.90;;;;;;2062196;28;20221;-66
2024/01/31 04:02:51;;;;;;;3.67;2.63;;;6.70;99.90;;;;;;2062529;28;20214;-66
2024/01/31 04:03:52;;;;;;;3.17;2.40;;;6.60;99.90;;;;;;2071287;28;20213;-65
2024/01/31 04:04:53;;;;;;;3.93;2.57;;;6.60;99.90;;;;;;2070615;28;20598;-66
2024/01/31 04:05:55;;;;;;;3.80;2.90;;;6.60;99.90;;;;;;2068886;28;20220;-66
2024/01/31 04:06:56;;;;;;;3.83;2.38;;;6.60;99.90;;;;;;2070993;28;20232;-65
2024/01/31 04:07:57;;;;;;;4.40;2.73;;;6.70;99.90;;;;;;2070552;28;20632;-66
2024/01/31 04:08:58;;;;;;;3.03;2.60;;;6.60;99.90;;;;;;2071884;28;20222;-66
2024/01/31 04:09:58;;;;;;;6.30;3.20;;;6.70;99.90;;;;;;2061215;28;20227;-66
2024/01/31 04:10:59;;;;;;;3.30;2.30;;;6.70;99.90;;;;;;2063063;28;20218;-65
2024/01/31 04:12:00;;;;;;;4.13;2.87;;;6.70;99.90;;;;;;2070247;28;20300;-66
2024/01/31 04:13:00;;;;;;;5.47;2.70;;;6.70;99.90;;;;;;2070915;28;20304;-66
2024/01/31 04:14:02;;;;;;;5.10;2.60;;;6.70;99.90;;;;;;2068518;28;20224;-65
2024/01/31 04:15:03;;;;;;;3.17;2.42;;;6.80;99.90;;;;;;2070214;28;20220;-66
2024/01/31 04:16:05;;;;;;;3.33;2.22;;;6.80;99.90;;;;;;2069425;28;20196;-65
2024/01/31 04:17:06;;;;;;;3.88;2.53;;;6.70;99.90;;;;;;2061733;28;20191;-65
2024/01/31 04:18:09;;;;;;;3.27;2.60;;;6.60;99.90;;;;;;2061283;28;20229;-66
2024/01/31 04:19:10;;;;;;;3.80;2.70;;;6.60;99.90;;;;;;2061715;28;20839;-66
2024/01/31 04:20:11;;;;;;;7.23;4.73;;;6.70;99.90;;;;;;2061358;28;20215;-65
2024/01/31 04:21:22;;;;;;;8.75;6.43;;;6.70;99.90;;;;;;2070849;28;20192;-66
2024/01/31 04:22:22;;;;;;;11.15;6.82;;;6.70;99.90;;;;;;2069586;28;20316;-66
2024/01/31 04:23:23;;;;;;;9.40;7.07;;;6.70;99.90;;;;;;2062780;28;20234;-66
2024/01/31 04:24:24;;;;;;;6.63;4.90;;;6.70;99.90;;;;;;2060812;28;20233;-66
2024/01/31 04:25:24;;;;;;;5.30;3.53;;;6.70;99.90;;;;;;2070278;28;21079;-66
2024/01/31 04:26:25;;;;;;;7.20;3.47;;;6.70;99.90;;;;;;2070384;28;20311;-66
2024/01/31 04:27:26;;;;;;;4.73;3.63;;;6.70;99.90;;;;;;2071444;28;20228;-66
2024/01/31 04:28:26;;;;;;;5.10;3.90;;;6.80;99.90;;;;;;2067354;28;20229;-66
2024/01/31 04:29:27;;;;;;;7.03;3.63;;;6.80;99.90;;;;;;2070676;28;20225;-66
2024/01/31 04:30:28;;;;;;;5.97;3.30;;;6.80;99.90;;;;;;2067896;28;20221;-66
2024/01/31 04:31:28;;;;;;;3.57;2.53;;;6.70;99.90;;;;;;2070378;28;20636;-65
2024/01/31 04:32:29;;;;;;;4.10;2.70;;;6.70;99.90;;;;;;2069856;28;20240;-66
2024/01/31 04:33:30;;;;;;;4.27;2.97;;;6.60;99.90;;;;;;2068787;28;20251;-66
2024/01/31 04:34:30;;;;;;;4.07;2.77;;;6.70;99.90;;;;;;2068363;28;20234;-65
2024/01/31 04:35:31;;;;;;;7.23;3.27;;;6.70;99.90;;;;;;2068861;28;20233;-66
2024/01/31 04:36:32;;;;;;;4.10;3.00;;;6.80;99.90;;;;;;2071171;28;20299;-65
2024/01/31 04:37:32;;;;;;;3.60;2.50;;;6.70;99.90;;;;;;2060772;28;20237;-66
2024/01/31 04:38:33;;;;;;;4.23;2.73;;;6.70;99.90;;;;;;2060763;28;20471;-66
2024/01/31 04:39:35;;;;;;;4.50;3.00;;;6.70;99.90;;;;;;2068765;28;20225;-65
2024/01/31 04:40:36;;;;;;;6.47;2.60;;;6.70;99.90;;;;;;2058341;28;20294;-66
2024/01/31 04:41:37;;;;;;;3.83;2.50;;;6.80;99.90;;;;;;2061250;28;20266;-66
2024/01/31 04:42:38;;;;;;;3.53;2.77;;;6.80;99.90;;;;;;2070127;28;20320;-66
2024/01/31 04:43:41;;;;;;;3.15;2.33;;;6.80;99.90;;;;;;2061357;28;20236;-66
2024/01/31 04:44:45;;;;;;;3.58;2.60;;;6.80;99.90;;;;;;2052542;28;20301;-65
2024/01/31 04:45:46;;;;;;;7.75;5.22;;;6.70;99.90;;;;;;2061855;28;20234;-66
2024/01/31 04:46:46;;;;;;;7.10;4.53;;;6.70;99.90;;;;;;2060211;28;20674;-67
2024/01/31 04:47:47;;;;;;;5.43;4.10;;;6.70;99.90;;;;;;2062031;28;20230;-66
2024/01/31 04:48:48;;;;;;;3.73;3.33;;;6.70;99.90;;;;;;2069559;28;20291;-65
2024/01/31 04:49:49;;;;;;;7.22;5.68;;;6.70;99.90;;;;;;2069615;28;20763;-66
2024/01/31 04:50:50;;;;;;;8.33;6.37;;;6.70;99.90;;;;;;2069706;28;20251;-65
2024/01/31 04:51:51;;;;;;;8.90;7.17;;;6.60;99.90;;;;;;2069267;28;20239;-66
2024/01/31 04:52:51;;;;;;;8.40;5.30;;;6.70;99.90;;;;;;2069926;28;20221;-66
2024/01/31 04:53:52;;;;;;;8.13;5.17;;;6.70;99.90;;;;;;2069110;28;20217;-65
2024/01/31 04:54:53;;;;;;;9.13;4.33;;;6.60;99.90;;;;;;2069883;28;20225;-66
2024/01/31 04:55:54;;;;;;;4.75;3.42;;;6.60;99.90;;;;;;2070413;28;20700;-66
2024/01/31 04:56:55;;;;;;;4.25;2.95;;;6.60;99.90;;;;;;2067878;28;20223;-66
2024/01/31 04:57:55;;;;;;;6.70;3.43;;;6.60;99.90;;;;;;2068345;28;20305;-66
2024/01/31 04:58:56;;;;;;;5.53;3.03;;;6.60;99.90;;;;;;2069818;28;20217;-65
2024/01/31 04:59:57;;;;;;;4.23;3.47;;;6.70;99.90;;;;;;2070618;28;20228;-66
2024/01/31 05:00:57;;;;;;;4.67;2.93;;;6.70;99.90;;;;;;2061107;28;20218;-65
2024/01/31 05:01:58;;;;;;;5.43;3.40;;;6.70;99.90;;;;;;2060664;28;20218;-65
2024/01/31 05:02:59;;;;;;;5.30;3.57;;;6.70;99.90;;;;;;2069601;28;20653;-65
2024/01/31 05:03:59;;;;;;;5.37;3.97;;;6.70;99.90;;;;;;2069439;28;20882;-65
2024/01/31 05:05:01;;;;;;;5.70;4.10;;;6.70;99.90;;;;;;2060504;28;20234;-65
2024/01/31 05:06:02;;;;;;;6.05;3.55;;;6.60;99.90;;;;;;2060150;28;20325;-65
2024/01/31 05:07:04;;;;;;;6.32;3.92;;;6.60;99.90;;;;;;2059842;28;20182;-65
2024/01/31 05:08:05;;;;;;;3.65;3.05;;;6.60;99.90;;;;;;2069824;28;20181;-65
2024/01/31 05:09:08;;;;;;;5.22;3.53;;;6.50;99.90;;;;;;2069016;28;20240;-64
2024/01/31 05:10:10;;;;;;;4.88;3.30;;;6.60;99.90;;;;;;2069656;28;20263;-65
2024/01/31 05:11:13;;;;;;;7.28;3.70;;;6.60;99.90;;;;;;2070511;28;20284;-65
2024/01/31 05:12:14;;;;;;;4.90;3.67;;;6.60;99.90;;;;;;2069674;28;20725;-65
2024/01/31 05:13:15;;;;;;;4.97;3.87;;;6.60;99.90;;;;;;2069932;28;20197;-65
2024/01/31 05:14:15;;;;;;;7.07;3.73;;;6.60;99.90;;;;;;2070358;28;20212;-65
2024/01/31 05:15:16;;;;;;;5.77;4.53;;;6.60;99.90;;;;;;2069510;28;20271;-65
2024/01/31 05:16:17;;;;;;;5.47;3.93;;;6.60;99.90;;;;;;2060348;28;20217;-65
2024/01/31 05:17:17;;;;;;;4.93;4.00;;;6.70;99.90;;;;;;2061084;28;20193;-65
2024/01/31 05:18:19;;;;;;;4.03;3.30;;;6.70;99.90;;;;;;2069571;28;20182;-66
2024/01/31 05:19:19;;;;;;;4.80;3.33;;;6.70;99.90;;;;;;2062434;28;20190;-66
2024/01/31 05:20:20;;;;;;;3.37;2.97;;;6.60;99.90;;;;;;2060649;28;20193;-65
2024/01/31 05:21:21;;;;;;;5.20;3.73;;;6.60;99.90;;;;;;2068897;28;20244;-65
2024/01/31 05:22:22;;;;;;;4.90;3.63;;;6.70;99.90;;;;;;2056692;28;20262;-65